Aviation Digital Data Service (ADDS)

Output produced by TAFs form (0141 UTC 22 November 2017)
found at http://www.aviationweather.gov/adds/tafs/
 
METAR text: RJOY 220100Z VRB01KT 9999 FEW030 BKN/// 11/01 Q1021
Conditions at: RJOY (YAO (CIV/JGSDF) , JP) observed 0100 UTC 22 November 2017
Temperature: 11.0°C (52°F)
Dewpoint: 1.0°C (34°F) [RH = 50%]
Pressure (altimeter): 30.15 inches Hg (1021.0 mb)
Winds: variable direction winds at 1 MPH (1 knots; 0.5 m/s)
Visibility: 6 or more miles (10+ km)
Ceiling: at least 12,000 feet AGL
Clouds: few clouds at 3000 feet AGL
Weather: no significant weather observed at this time